sensor_id;sensor_type;location;lat;lon;timestamp;P1;durP1;ratioP1;P2;durP2;ratioP2
74375;SDS011;62812;55.188;61.302;2022-11-23T00:01:11;7.75;;;3.03;;
74375;SDS011;62812;55.188;61.302;2022-11-23T00:03:38;6.32;;;2.05;;
74375;SDS011;62812;55.188;61.302;2022-11-23T00:06:06;6.93;;;1.90;;
74375;SDS011;62812;55.188;61.302;2022-11-23T00:08:33;8.52;;;2.80;;
74375;SDS011;62812;55.188;61.302;2022-11-23T00:11:00;7.40;;;2.78;;
74375;SDS011;62812;55.188;61.302;2022-11-23T00:13:26;8.73;;;4.00;;
74375;SDS011;62812;55.188;61.302;2022-11-23T00:15:53;4.95;;;2.70;;
74375;SDS011;62812;55.188;61.302;2022-11-23T00:18:19;5.55;;;3.28;;
74375;SDS011;62812;55.188;61.302;2022-11-23T00:20:46;8.52;;;4.80;;
74375;SDS011;62812;55.188;61.302;2022-11-23T00:23:14;6.93;;;4.03;;
74375;SDS011;62812;55.188;61.302;2022-11-23T00:25:42;6.90;;;4.10;;
74375;SDS011;62812;55.188;61.302;2022-11-23T00:28:10;6.82;;;3.30;;
74375;SDS011;62812;55.188;61.302;2022-11-23T00:30:37;8.48;;;3.42;;
74375;SDS011;62812;55.188;61.302;2022-11-23T00:33:03;7.22;;;4.45;;
74375;SDS011;62812;55.188;61.302;2022-11-23T00:35:30;4.80;;;2.67;;
74375;SDS011;62812;55.188;61.302;2022-11-23T00:37:56;8.98;;;3.75;;
74375;SDS011;62812;55.188;61.302;2022-11-23T00:40:24;7.70;;;4.03;;
74375;SDS011;62812;55.188;61.302;2022-11-23T00:42:50;8.13;;;5.45;;
74375;SDS011;62812;55.188;61.302;2022-11-23T00:45:17;8.00;;;4.25;;
74375;SDS011;62812;55.188;61.302;2022-11-23T00:47:43;7.30;;;4.00;;
74375;SDS011;62812;55.188;61.302;2022-11-23T00:50:10;9.52;;;6.03;;
74375;SDS011;62812;55.188;61.302;2022-11-23T00:52:46;11.43;;;6.93;;
74375;SDS011;62812;55.188;61.302;2022-11-23T00:55:15;11.52;;;7.55;;
74375;SDS011;62812;55.188;61.302;2022-11-23T00:57:52;12.38;;;7.78;;
74375;SDS011;62812;55.188;61.302;2022-11-23T01:00:19;9.10;;;6.25;;
74375;SDS011;62812;55.188;61.302;2022-11-23T01:02:46;13.40;;;6.82;;
74375;SDS011;62812;55.188;61.302;2022-11-23T01:05:12;12.77;;;7.60;;
74375;SDS011;62812;55.188;61.302;2022-11-23T01:07:38;12.13;;;6.18;;
74375;SDS011;62812;55.188;61.302;2022-11-23T01:10:05;11.77;;;7.10;;
74375;SDS011;62812;55.188;61.302;2022-11-23T01:12:32;11.45;;;6.57;;
74375;SDS011;62812;55.188;61.302;2022-11-23T01:15:00;11.93;;;5.57;;
74375;SDS011;62812;55.188;61.302;2022-11-23T01:17:27;8.60;;;5.40;;
74375;SDS011;62812;55.188;61.302;2022-11-23T01:19:53;12.20;;;7.28;;
74375;SDS011;62812;55.188;61.302;2022-11-23T01:22:20;11.38;;;6.95;;
74375;SDS011;62812;55.188;61.302;2022-11-23T01:24:48;9.02;;;5.95;;
74375;SDS011;62812;55.188;61.302;2022-11-23T01:27:15;10.88;;;6.35;;
74375;SDS011;62812;55.188;61.302;2022-11-23T01:29:41;10.68;;;6.13;;
74375;SDS011;62812;55.188;61.302;2022-11-23T01:32:09;13.05;;;6.75;;
74375;SDS011;62812;55.188;61.302;2022-11-23T01:34:35;11.85;;;7.13;;
74375;SDS011;62812;55.188;61.302;2022-11-23T01:37:02;15.95;;;8.55;;
74375;SDS011;62812;55.188;61.302;2022-11-23T01:39:28;17.55;;;10.25;;
74375;SDS011;62812;55.188;61.302;2022-11-23T01:41:55;15.13;;;7.50;;
74375;SDS011;62812;55.188;61.302;2022-11-23T01:44:25;13.13;;;8.25;;
74375;SDS011;62812;55.188;61.302;2022-11-23T01:46:53;14.25;;;9.02;;
74375;SDS011;62812;55.188;61.302;2022-11-23T01:49:25;14.73;;;8.10;;
74375;SDS011;62812;55.188;61.302;2022-11-23T01:51:55;14.20;;;9.15;;
74375;SDS011;62812;55.188;61.302;2022-11-23T01:54:25;13.43;;;9.18;;
74375;SDS011;62812;55.188;61.302;2022-11-23T01:56:56;16.17;;;11.13;;
74375;SDS011;62812;55.188;61.302;2022-11-23T01:59:28;18.17;;;11.68;;
74375;SDS011;62812;55.188;61.302;2022-11-23T02:01:58;19.90;;;11.43;;
74375;SDS011;62812;55.188;61.302;2022-11-23T02:04:28;14.13;;;5.20;;
74375;SDS011;62812;55.188;61.302;2022-11-23T02:06:58;13.15;;;4.05;;
74375;SDS011;62812;55.188;61.302;2022-11-23T02:09:27;9.82;;;3.53;;
74375;SDS011;62812;55.188;61.302;2022-11-23T02:11:56;10.23;;;5.85;;
74375;SDS011;62812;55.188;61.302;2022-11-23T02:14:22;10.70;;;4.78;;
74375;SDS011;62812;55.188;61.302;2022-11-23T02:16:49;13.90;;;6.57;;
74375;SDS011;62812;55.188;61.302;2022-11-23T02:19:18;13.63;;;5.68;;
74375;SDS011;62812;55.188;61.302;2022-11-23T02:21:55;13.40;;;4.60;;
74375;SDS011;62812;55.188;61.302;2022-11-23T02:24:23;12.52;;;4.20;;
74375;SDS011;62812;55.188;61.302;2022-11-23T02:26:55;14.80;;;5.68;;
74375;SDS011;62812;55.188;61.302;2022-11-23T02:29:23;19.27;;;6.23;;
74375;SDS011;62812;55.188;61.302;2022-11-23T02:31:51;13.00;;;5.05;;
74375;SDS011;62812;55.188;61.302;2022-11-23T02:34:18;9.80;;;4.75;;
74375;SDS011;62812;55.188;61.302;2022-11-23T02:36:45;15.23;;;5.78;;
74375;SDS011;62812;55.188;61.302;2022-11-23T02:39:13;19.20;;;6.80;;
74375;SDS011;62812;55.188;61.302;2022-11-23T02:41:44;11.55;;;5.30;;
74375;SDS011;62812;55.188;61.302;2022-11-23T02:44:19;13.85;;;4.45;;
74375;SDS011;62812;55.188;61.302;2022-11-23T02:46:56;10.70;;;5.15;;
74375;SDS011;62812;55.188;61.302;2022-11-23T02:49:23;12.00;;;5.78;;
74375;SDS011;62812;55.188;61.302;2022-11-23T02:51:50;19.17;;;7.30;;
74375;SDS011;62812;55.188;61.302;2022-11-23T02:54:16;10.55;;;5.97;;
74375;SDS011;62812;55.188;61.302;2022-11-23T02:56:43;35.33;;;8.77;;
74375;SDS011;62812;55.188;61.302;2022-11-23T02:59:09;15.75;;;7.50;;
74375;SDS011;62812;55.188;61.302;2022-11-23T03:01:37;12.90;;;6.70;;
74375;SDS011;62812;55.188;61.302;2022-11-23T03:04:07;19.23;;;6.97;;
74375;SDS011;62812;55.188;61.302;2022-11-23T03:06:34;17.50;;;5.88;;
74375;SDS011;62812;55.188;61.302;2022-11-23T03:09:01;17.70;;;5.15;;
74375;SDS011;62812;55.188;61.302;2022-11-23T03:11:27;13.60;;;4.80;;
74375;SDS011;62812;55.188;61.302;2022-11-23T03:13:54;7.55;;;3.28;;
74375;SDS011;62812;55.188;61.302;2022-11-23T03:16:20;15.32;;;6.15;;
74375;SDS011;62812;55.188;61.302;2022-11-23T03:18:48;15.27;;;8.43;;
74375;SDS011;62812;55.188;61.302;2022-11-23T03:21:15;15.30;;;7.50;;
74375;SDS011;62812;55.188;61.302;2022-11-23T03:23:42;15.85;;;8.10;;
74375;SDS011;62812;55.188;61.302;2022-11-23T03:26:09;13.15;;;8.15;;
74375;SDS011;62812;55.188;61.302;2022-11-23T03:28:35;15.85;;;8.20;;
74375;SDS011;62812;55.188;61.302;2022-11-23T03:31:02;16.40;;;11.45;;
74375;SDS011;62812;55.188;61.302;2022-11-23T03:33:28;23.23;;;12.60;;
74375;SDS011;62812;55.188;61.302;2022-11-23T03:35:56;19.48;;;11.10;;
74375;SDS011;62812;55.188;61.302;2022-11-23T03:38:23;19.73;;;12.05;;
74375;SDS011;62812;55.188;61.302;2022-11-23T03:40:49;23.23;;;8.25;;
74375;SDS011;62812;55.188;61.302;2022-11-23T03:43:16;22.90;;;8.75;;
74375;SDS011;62812;55.188;61.302;2022-11-23T03:45:42;19.30;;;6.43;;
74375;SDS011;62812;55.188;61.302;2022-11-23T03:48:09;14.05;;;5.03;;
74375;SDS011;62812;55.188;61.302;2022-11-23T03:50:35;15.27;;;5.50;;
74375;SDS011;62812;55.188;61.302;2022-11-23T03:53:03;17.63;;;7.20;;
74375;SDS011;62812;55.188;61.302;2022-11-23T03:55:30;18.40;;;6.78;;
74375;SDS011;62812;55.188;61.302;2022-11-23T03:57:57;14.45;;;5.07;;
74375;SDS011;62812;55.188;61.302;2022-11-23T04:00:24;10.68;;;4.65;;
74375;SDS011;62812;55.188;61.302;2022-11-23T04:02:51;17.45;;;5.80;;
74375;SDS011;62812;55.188;61.302;2022-11-23T04:05:17;15.50;;;6.43;;
74375;SDS011;62812;55.188;61.302;2022-11-23T04:07:46;13.98;;;7.07;;
74375;SDS011;62812;55.188;61.302;2022-11-23T04:10:14;13.40;;;7.88;;
74375;SDS011;62812;55.188;61.302;2022-11-23T04:12:42;17.60;;;9.38;;
74375;SDS011;62812;55.188;61.302;2022-11-23T04:15:08;18.40;;;9.85;;
74375;SDS011;62812;55.188;61.302;2022-11-23T04:17:39;15.05;;;8.32;;
74375;SDS011;62812;55.188;61.302;2022-11-23T04:20:08;16.67;;;9.30;;
74375;SDS011;62812;55.188;61.302;2022-11-23T04:22:36;13.30;;;8.18;;
74375;SDS011;62812;55.188;61.302;2022-11-23T04:25:02;12.93;;;8.43;;
74375;SDS011;62812;55.188;61.302;2022-11-23T04:27:34;19.80;;;9.02;;
74375;SDS011;62812;55.188;61.302;2022-11-23T04:30:00;12.18;;;9.13;;
74375;SDS011;62812;55.188;61.302;2022-11-23T04:32:37;14.95;;;6.78;;
74375;SDS011;62812;55.188;61.302;2022-11-23T04:35:03;15.90;;;4.70;;
74375;SDS011;62812;55.188;61.302;2022-11-23T04:37:30;11.43;;;3.60;;
74375;SDS011;62812;55.188;61.302;2022-11-23T04:39:57;12.82;;;5.10;;
74375;SDS011;62812;55.188;61.302;2022-11-23T04:42:24;12.10;;;6.13;;
74375;SDS011;62812;55.188;61.302;2022-11-23T04:44:51;15.57;;;6.88;;
74375;SDS011;62812;55.188;61.302;2022-11-23T04:47:18;17.30;;;7.65;;
74375;SDS011;62812;55.188;61.302;2022-11-23T04:49:44;21.17;;;9.48;;
74375;SDS011;62812;55.188;61.302;2022-11-23T04:52:11;15.90;;;9.00;;
74375;SDS011;62812;55.188;61.302;2022-11-23T04:54:37;22.75;;;10.13;;
74375;SDS011;62812;55.188;61.302;2022-11-23T04:57:04;11.10;;;7.25;;
74375;SDS011;62812;55.188;61.302;2022-11-23T04:59:30;14.85;;;9.45;;
74375;SDS011;62812;55.188;61.302;2022-11-23T05:02:04;18.65;;;8.98;;
74375;SDS011;62812;55.188;61.302;2022-11-23T05:04:33;12.95;;;7.30;;
74375;SDS011;62812;55.188;61.302;2022-11-23T05:07:00;17.60;;;8.90;;
74375;SDS011;62812;55.188;61.302;2022-11-23T05:09:27;16.63;;;9.48;;
74375;SDS011;62812;55.188;61.302;2022-11-23T05:11:53;27.73;;;12.90;;
74375;SDS011;62812;55.188;61.302;2022-11-23T05:14:20;19.10;;;8.20;;
74375;SDS011;62812;55.188;61.302;2022-11-23T05:16:46;19.85;;;6.50;;
74375;SDS011;62812;55.188;61.302;2022-11-23T05:19:14;16.10;;;5.47;;
74375;SDS011;62812;55.188;61.302;2022-11-23T05:21:40;7.78;;;3.67;;
74375;SDS011;62812;55.188;61.302;2022-11-23T05:24:09;10.15;;;4.30;;
74375;SDS011;62812;55.188;61.302;2022-11-23T05:26:36;16.25;;;7.18;;
74375;SDS011;62812;55.188;61.302;2022-11-23T05:29:02;12.73;;;6.07;;
74375;SDS011;62812;55.188;61.302;2022-11-23T05:31:28;18.10;;;6.78;;
74375;SDS011;62812;55.188;61.302;2022-11-23T05:33:55;13.60;;;7.32;;
74375;SDS011;62812;55.188;61.302;2022-11-23T05:36:23;13.63;;;5.45;;
74375;SDS011;62812;55.188;61.302;2022-11-23T05:38:49;16.80;;;6.38;;
74375;SDS011;62812;55.188;61.302;2022-11-23T05:41:18;15.52;;;8.60;;
74375;SDS011;62812;55.188;61.302;2022-11-23T05:43:47;15.00;;;7.60;;
74375;SDS011;62812;55.188;61.302;2022-11-23T05:46:13;18.60;;;8.05;;
74375;SDS011;62812;55.188;61.302;2022-11-23T05:48:40;18.40;;;9.45;;
74375;SDS011;62812;55.188;61.302;2022-11-23T05:51:07;14.63;;;6.85;;
74375;SDS011;62812;55.188;61.302;2022-11-23T05:53:35;14.38;;;7.43;;
74375;SDS011;62812;55.188;61.302;2022-11-23T05:56:01;15.07;;;7.53;;
74375;SDS011;62812;55.188;61.302;2022-11-23T05:58:28;14.85;;;7.82;;
74375;SDS011;62812;55.188;61.302;2022-11-23T06:00:56;12.90;;;9.05;;
74375;SDS011;62812;55.188;61.302;2022-11-23T06:03:26;16.60;;;7.38;;
74375;SDS011;62812;55.188;61.302;2022-11-23T06:05:52;14.40;;;7.28;;
74375;SDS011;62812;55.188;61.302;2022-11-23T06:08:19;20.05;;;8.38;;
74375;SDS011;62812;55.188;61.302;2022-11-23T06:10:46;11.88;;;6.80;;
74375;SDS011;62812;55.188;61.302;2022-11-23T06:13:15;15.98;;;7.22;;
74375;SDS011;62812;55.188;61.302;2022-11-23T06:15:46;14.40;;;7.30;;
74375;SDS011;62812;55.188;61.302;2022-11-23T06:18:18;17.60;;;8.27;;
74375;SDS011;62812;55.188;61.302;2022-11-23T06:20:50;17.23;;;6.90;;
74375;SDS011;62812;55.188;61.302;2022-11-23T06:26:41;14.02;;;6.55;;
74375;SDS011;62812;55.188;61.302;2022-11-23T06:29:07;14.20;;;6.57;;
74375;SDS011;62812;55.188;61.302;2022-11-23T06:31:34;8.70;;;6.35;;
74375;SDS011;62812;55.188;61.302;2022-11-23T06:34:07;14.43;;;6.70;;
74375;SDS011;62812;55.188;61.302;2022-11-23T06:36:33;13.15;;;6.68;;
74375;SDS011;62812;55.188;61.302;2022-11-23T06:39:00;12.95;;;5.32;;
74375;SDS011;62812;55.188;61.302;2022-11-23T06:41:27;14.90;;;6.68;;
74375;SDS011;62812;55.188;61.302;2022-11-23T06:43:54;15.20;;;5.75;;
74375;SDS011;62812;55.188;61.302;2022-11-23T06:46:21;16.30;;;7.03;;
74375;SDS011;62812;55.188;61.302;2022-11-23T06:48:47;15.52;;;6.75;;
74375;SDS011;62812;55.188;61.302;2022-11-23T06:51:14;15.90;;;7.20;;
74375;SDS011;62812;55.188;61.302;2022-11-23T06:53:41;15.38;;;5.85;;
74375;SDS011;62812;55.188;61.302;2022-11-23T06:56:07;17.10;;;6.88;;
74375;SDS011;62812;55.188;61.302;2022-11-23T06:58:34;14.90;;;7.22;;
74375;SDS011;62812;55.188;61.302;2022-11-23T07:01:04;15.77;;;6.25;;
74375;SDS011;62812;55.188;61.302;2022-11-23T07:03:32;13.35;;;5.22;;
74375;SDS011;62812;55.188;61.302;2022-11-23T07:05:58;15.18;;;7.28;;
74375;SDS011;62812;55.188;61.302;2022-11-23T07:08:28;15.73;;;5.85;;
74375;SDS011;62812;55.188;61.302;2022-11-23T07:10:58;13.85;;;6.07;;
74375;SDS011;62812;55.188;61.302;2022-11-23T07:13:25;10.88;;;5.45;;
74375;SDS011;62812;55.188;61.302;2022-11-23T07:15:52;13.13;;;5.20;;
74375;SDS011;62812;55.188;61.302;2022-11-23T07:18:20;17.55;;;6.03;;
74375;SDS011;62812;55.188;61.302;2022-11-23T07:20:46;15.73;;;6.38;;
74375;SDS011;62812;55.188;61.302;2022-11-23T07:23:13;13.15;;;5.63;;
74375;SDS011;62812;55.188;61.302;2022-11-23T07:25:39;15.32;;;5.65;;
74375;SDS011;62812;55.188;61.302;2022-11-23T07:28:06;18.85;;;5.30;;
74375;SDS011;62812;55.188;61.302;2022-11-23T07:30:33;13.35;;;4.80;;
74375;SDS011;62812;55.188;61.302;2022-11-23T07:33:03;11.75;;;5.53;;
74375;SDS011;62812;55.188;61.302;2022-11-23T07:36:02;19.33;;;6.28;;
74375;SDS011;62812;55.188;61.302;2022-11-23T07:38:31;16.55;;;6.90;;
74375;SDS011;62812;55.188;61.302;2022-11-23T07:40:58;12.88;;;4.88;;
74375;SDS011;62812;55.188;61.302;2022-11-23T07:43:26;12.80;;;5.45;;
74375;SDS011;62812;55.188;61.302;2022-11-23T07:45:54;17.75;;;5.85;;
74375;SDS011;62812;55.188;61.302;2022-11-23T07:48:21;10.50;;;4.32;;
74375;SDS011;62812;55.188;61.302;2022-11-23T07:50:50;12.95;;;4.70;;
74375;SDS011;62812;55.188;61.302;2022-11-23T07:53:19;12.77;;;5.20;;
74375;SDS011;62812;55.188;61.302;2022-11-23T07:55:45;10.02;;;3.95;;
74375;SDS011;62812;55.188;61.302;2022-11-23T07:58:12;13.18;;;4.50;;
74375;SDS011;62812;55.188;61.302;2022-11-23T08:00:39;17.90;;;5.88;;
74375;SDS011;62812;55.188;61.302;2022-11-23T08:03:05;16.55;;;5.78;;
74375;SDS011;62812;55.188;61.302;2022-11-23T08:05:32;15.32;;;5.43;;
74375;SDS011;62812;55.188;61.302;2022-11-23T08:08:09;20.90;;;8.38;;
74375;SDS011;62812;55.188;61.302;2022-11-23T08:10:37;17.55;;;6.72;;
74375;SDS011;62812;55.188;61.302;2022-11-23T08:13:06;11.88;;;5.57;;
74375;SDS011;62812;55.188;61.302;2022-11-23T08:15:32;19.85;;;6.80;;
74375;SDS011;62812;55.188;61.302;2022-11-23T08:18:01;17.05;;;7.78;;
74375;SDS011;62812;55.188;61.302;2022-11-23T08:20:29;18.58;;;7.13;;
74375;SDS011;62812;55.188;61.302;2022-11-23T08:22:56;10.70;;;4.85;;
74375;SDS011;62812;55.188;61.302;2022-11-23T08:25:24;14.23;;;6.28;;
74375;SDS011;62812;55.188;61.302;2022-11-23T08:27:56;11.82;;;5.78;;
74375;SDS011;62812;55.188;61.302;2022-11-23T08:30:23;16.35;;;4.88;;
74375;SDS011;62812;55.188;61.302;2022-11-23T08:32:51;4.82;;;1.80;;
74375;SDS011;62812;55.188;61.302;2022-11-23T08:35:18;4.60;;;2.35;;
74375;SDS011;62812;55.188;61.302;2022-11-23T08:37:45;13.73;;;4.78;;
74375;SDS011;62812;55.188;61.302;2022-11-23T08:40:12;15.50;;;6.00;;
74375;SDS011;62812;55.188;61.302;2022-11-23T08:42:39;13.27;;;4.97;;
74375;SDS011;62812;55.188;61.302;2022-11-23T08:45:08;11.88;;;4.80;;
74375;SDS011;62812;55.188;61.302;2022-11-23T08:47:35;8.13;;;3.35;;
74375;SDS011;62812;55.188;61.302;2022-11-23T08:50:02;11.00;;;4.10;;
74375;SDS011;62812;55.188;61.302;2022-11-23T08:52:28;13.98;;;6.03;;
74375;SDS011;62812;55.188;61.302;2022-11-23T08:54:55;10.77;;;3.33;;
74375;SDS011;62812;55.188;61.302;2022-11-23T08:57:21;13.23;;;4.60;;
74375;SDS011;62812;55.188;61.302;2022-11-23T08:59:48;19.85;;;4.90;;
74375;SDS011;62812;55.188;61.302;2022-11-23T09:02:16;15.55;;;5.25;;
74375;SDS011;62812;55.188;61.302;2022-11-23T09:04:42;13.40;;;4.60;;
74375;SDS011;62812;55.188;61.302;2022-11-23T09:07:12;19.23;;;8.38;;
74375;SDS011;62812;55.188;61.302;2022-11-23T09:09:38;14.18;;;6.00;;
74375;SDS011;62812;55.188;61.302;2022-11-23T09:12:05;12.32;;;4.95;;
74375;SDS011;62812;55.188;61.302;2022-11-23T09:14:32;12.70;;;4.10;;
74375;SDS011;62812;55.188;61.302;2022-11-23T09:16:59;8.35;;;3.45;;
74375;SDS011;62812;55.188;61.302;2022-11-23T09:19:28;11.45;;;3.92;;
74375;SDS011;62812;55.188;61.302;2022-11-23T09:21:54;12.68;;;3.92;;
74375;SDS011;62812;55.188;61.302;2022-11-23T09:24:21;14.75;;;4.22;;
74375;SDS011;62812;55.188;61.302;2022-11-23T09:26:48;9.38;;;3.58;;
74375;SDS011;62812;55.188;61.302;2022-11-23T09:29:23;20.33;;;2.67;;
74375;SDS011;62812;55.188;61.302;2022-11-23T09:31:50;12.50;;;3.28;;
74375;SDS011;62812;55.188;61.302;2022-11-23T09:34:17;14.18;;;3.83;;
74375;SDS011;62812;55.188;61.302;2022-11-23T09:36:45;10.07;;;3.40;;
74375;SDS011;62812;55.188;61.302;2022-11-23T09:39:11;11.65;;;4.30;;
74375;SDS011;62812;55.188;61.302;2022-11-23T09:41:51;7.80;;;3.08;;
74375;SDS011;62812;55.188;61.302;2022-11-23T09:44:31;10.52;;;4.13;;
74375;SDS011;62812;55.188;61.302;2022-11-23T09:47:11;11.43;;;4.22;;
74375;SDS011;62812;55.188;61.302;2022-11-23T09:49:53;8.75;;;3.35;;
74375;SDS011;62812;55.188;61.302;2022-11-23T09:52:28;11.57;;;4.15;;
74375;SDS011;62812;55.188;61.302;2022-11-23T09:54:56;11.02;;;4.35;;
74375;SDS011;62812;55.188;61.302;2022-11-23T09:57:26;11.50;;;4.03;;
74375;SDS011;62812;55.188;61.302;2022-11-23T09:59:56;10.38;;;4.20;;
74375;SDS011;62812;55.188;61.302;2022-11-23T10:02:26;12.43;;;4.60;;
74375;SDS011;62812;55.188;61.302;2022-11-23T10:04:54;14.07;;;3.72;;
74375;SDS011;62812;55.188;61.302;2022-11-23T10:07:25;9.57;;;3.88;;
74375;SDS011;62812;55.188;61.302;2022-11-23T10:10:07;11.43;;;5.05;;
74375;SDS011;62812;55.188;61.302;2022-11-23T10:12:44;10.45;;;3.55;;
74375;SDS011;62812;55.188;61.302;2022-11-23T10:15:17;10.63;;;4.28;;
74375;SDS011;62812;55.188;61.302;2022-11-23T10:20:37;12.20;;;4.13;;
74375;SDS011;62812;55.188;61.302;2022-11-23T10:23:18;9.23;;;4.20;;
74375;SDS011;62812;55.188;61.302;2022-11-23T10:25:54;10.35;;;2.65;;
74375;SDS011;62812;55.188;61.302;2022-11-23T10:28:21;9.05;;;3.70;;
74375;SDS011;62812;55.188;61.302;2022-11-23T10:30:59;9.07;;;3.15;;
74375;SDS011;62812;55.188;61.302;2022-11-23T10:33:33;10.13;;;4.13;;
74375;SDS011;62812;55.188;61.302;2022-11-23T10:36:04;12.77;;;4.13;;
74375;SDS011;62812;55.188;61.302;2022-11-23T10:38:35;9.32;;;3.95;;
74375;SDS011;62812;55.188;61.302;2022-11-23T10:41:03;11.43;;;4.07;;
74375;SDS011;62812;55.188;61.302;2022-11-23T10:43:34;9.52;;;3.13;;
74375;SDS011;62812;55.188;61.302;2022-11-23T10:46:26;10.77;;;3.35;;
74375;SDS011;62812;55.188;61.302;2022-11-23T10:48:56;9.98;;;3.65;;
74375;SDS011;62812;55.188;61.302;2022-11-23T10:51:35;9.85;;;3.53;;
74375;SDS011;62812;55.188;61.302;2022-11-23T10:54:04;6.47;;;1.90;;
74375;SDS011;62812;55.188;61.302;2022-11-23T10:56:44;3.65;;;1.58;;
74375;SDS011;62812;55.188;61.302;2022-11-23T10:59:17;9.27;;;3.25;;
74375;SDS011;62812;55.188;61.302;2022-11-23T11:01:57;12.65;;;4.35;;
74375;SDS011;62812;55.188;61.302;2022-11-23T11:04:25;9.95;;;4.00;;
74375;SDS011;62812;55.188;61.302;2022-11-23T11:06:51;13.68;;;4.30;;
74375;SDS011;62812;55.188;61.302;2022-11-23T11:09:36;9.63;;;3.17;;
74375;SDS011;62812;55.188;61.302;2022-11-23T11:12:04;13.88;;;4.78;;
74375;SDS011;62812;55.188;61.302;2022-11-23T11:14:30;12.70;;;4.43;;
74375;SDS011;62812;55.188;61.302;2022-11-23T11:16:57;10.52;;;4.47;;
74375;SDS011;62812;55.188;61.302;2022-11-23T11:19:25;12.23;;;4.57;;
74375;SDS011;62812;55.188;61.302;2022-11-23T11:21:53;13.27;;;4.07;;
74375;SDS011;62812;55.188;61.302;2022-11-23T11:24:20;10.00;;;3.50;;
74375;SDS011;62812;55.188;61.302;2022-11-23T11:26:56;5.28;;;2.55;;
74375;SDS011;62812;55.188;61.302;2022-11-23T11:29:28;13.35;;;4.60;;
74375;SDS011;62812;55.188;61.302;2022-11-23T11:31:58;10.57;;;4.05;;
74375;SDS011;62812;55.188;61.302;2022-11-23T11:34:29;12.45;;;4.63;;
74375;SDS011;62812;55.188;61.302;2022-11-23T11:37:01;11.23;;;4.30;;
74375;SDS011;62812;55.188;61.302;2022-11-23T11:39:34;11.70;;;3.63;;
74375;SDS011;62812;55.188;61.302;2022-11-23T11:42:12;11.85;;;3.95;;
74375;SDS011;62812;55.188;61.302;2022-11-23T11:44:43;7.13;;;2.88;;
74375;SDS011;62812;55.188;61.302;2022-11-23T11:47:16;9.90;;;3.97;;
74375;SDS011;62812;55.188;61.302;2022-11-23T11:49:50;13.07;;;4.70;;
74375;SDS011;62812;55.188;61.302;2022-11-23T11:52:22;15.48;;;4.90;;
74375;SDS011;62812;55.188;61.302;2022-11-23T11:57:23;11.38;;;4.15;;
74375;SDS011;62812;55.188;61.302;2022-11-23T11:59:54;7.93;;;3.47;;
74375;SDS011;62812;55.188;61.302;2022-11-23T12:02:23;12.00;;;4.40;;
74375;SDS011;62812;55.188;61.302;2022-11-23T12:04:53;12.00;;;4.18;;
74375;SDS011;62812;55.188;61.302;2022-11-23T12:07:26;7.07;;;3.03;;
74375;SDS011;62812;55.188;61.302;2022-11-23T12:10:04;8.85;;;3.53;;
74375;SDS011;62812;55.188;61.302;2022-11-23T12:12:38;14.65;;;4.18;;
74375;SDS011;62812;55.188;61.302;2022-11-23T12:15:05;7.97;;;3.53;;
74375;SDS011;62812;55.188;61.302;2022-11-23T12:17:51;9.35;;;3.97;;
74375;SDS011;62812;55.188;61.302;2022-11-23T12:20:29;9.48;;;3.50;;
74375;SDS011;62812;55.188;61.302;2022-11-23T12:23:08;10.75;;;4.57;;
74375;SDS011;62812;55.188;61.302;2022-11-23T12:25:45;10.18;;;4.18;;
74375;SDS011;62812;55.188;61.302;2022-11-23T12:28:28;12.18;;;4.20;;
74375;SDS011;62812;55.188;61.302;2022-11-23T12:31:10;9.40;;;4.05;;
74375;SDS011;62812;55.188;61.302;2022-11-23T12:33:51;10.27;;;5.40;;
74375;SDS011;62812;55.188;61.302;2022-11-23T12:36:41;13.20;;;6.13;;
74375;SDS011;62812;55.188;61.302;2022-11-23T12:39:20;11.63;;;4.47;;
74375;SDS011;62812;55.188;61.302;2022-11-23T12:42:08;12.05;;;3.20;;
74375;SDS011;62812;55.188;61.302;2022-11-23T12:44:51;6.15;;;2.90;;
74375;SDS011;62812;55.188;61.302;2022-11-23T12:47:49;9.52;;;4.07;;
74375;SDS011;62812;55.188;61.302;2022-11-23T12:50:34;8.80;;;3.83;;
74375;SDS011;62812;55.188;61.302;2022-11-23T12:53:32;10.30;;;4.60;;
74375;SDS011;62812;55.188;61.302;2022-11-23T12:56:07;13.20;;;5.88;;
74375;SDS011;62812;55.188;61.302;2022-11-23T13:01:14;14.77;;;8.82;;
74375;SDS011;62812;55.188;61.302;2022-11-23T13:07:28;23.80;;;8.40;;
74375;SDS011;62812;55.188;61.302;2022-11-23T13:10:25;11.32;;;4.05;;
74375;SDS011;62812;55.188;61.302;2022-11-23T13:21:51;10.27;;;5.32;;
74375;SDS011;62812;55.188;61.302;2022-11-23T13:24:28;11.88;;;6.35;;
74375;SDS011;62812;55.188;61.302;2022-11-23T13:30:08;5.57;;;3.80;;
74375;SDS011;62812;55.188;61.302;2022-11-23T13:32:55;13.18;;;5.63;;
74375;SDS011;62812;55.188;61.302;2022-11-23T13:38:26;13.23;;;5.95;;
74375;SDS011;62812;55.188;61.302;2022-11-23T13:41:03;10.20;;;4.45;;
74375;SDS011;62812;55.188;61.302;2022-11-23T13:44:20;11.50;;;5.93;;
74375;SDS011;62812;55.188;61.302;2022-11-23T13:49:46;11.35;;;5.43;;
74375;SDS011;62812;55.188;61.302;2022-11-23T13:52:24;12.13;;;5.95;;
74375;SDS011;62812;55.188;61.302;2022-11-23T13:54:59;9.50;;;5.90;;
74375;SDS011;62812;55.188;61.302;2022-11-23T13:57:29;10.43;;;4.57;;
74375;SDS011;62812;55.188;61.302;2022-11-23T14:05:57;6.15;;;3.08;;
74375;SDS011;62812;55.188;61.302;2022-11-23T14:08:25;13.25;;;5.28;;
74375;SDS011;62812;55.188;61.302;2022-11-23T14:10:53;7.60;;;3.97;;
74375;SDS011;62812;55.188;61.302;2022-11-23T14:13:22;10.77;;;5.00;;
74375;SDS011;62812;55.188;61.302;2022-11-23T14:15:53;15.30;;;6.00;;
74375;SDS011;62812;55.188;61.302;2022-11-23T14:21:28;9.35;;;3.80;;
74375;SDS011;62812;55.188;61.302;2022-11-23T14:24:08;12.98;;;4.30;;
74375;SDS011;62812;55.188;61.302;2022-11-23T14:26:58;5.75;;;2.65;;
74375;SDS011;62812;55.188;61.302;2022-11-23T14:29:39;6.85;;;3.67;;
74375;SDS011;62812;55.188;61.302;2022-11-23T14:32:31;6.90;;;3.45;;
74375;SDS011;62812;55.188;61.302;2022-11-23T14:35:17;11.60;;;5.95;;
74375;SDS011;62812;55.188;61.302;2022-11-23T14:37:56;9.82;;;5.47;;
74375;SDS011;62812;55.188;61.302;2022-11-23T14:40:46;12.85;;;5.28;;
74375;SDS011;62812;55.188;61.302;2022-11-23T14:43:21;7.07;;;4.03;;
74375;SDS011;62812;55.188;61.302;2022-11-23T14:45:49;5.47;;;4.15;;
74375;SDS011;62812;55.188;61.302;2022-11-23T14:48:19;8.75;;;4.05;;
74375;SDS011;62812;55.188;61.302;2022-11-23T14:50:51;5.55;;;3.28;;
74375;SDS011;62812;55.188;61.302;2022-11-23T14:53:21;9.70;;;4.63;;
74375;SDS011;62812;55.188;61.302;2022-11-23T14:55:50;9.20;;;3.20;;
74375;SDS011;62812;55.188;61.302;2022-11-23T14:58:17;7.95;;;3.60;;
74375;SDS011;62812;55.188;61.302;2022-11-23T15:00:44;10.57;;;4.80;;
74375;SDS011;62812;55.188;61.302;2022-11-23T15:03:13;8.75;;;4.32;;
74375;SDS011;62812;55.188;61.302;2022-11-23T15:05:42;11.27;;;4.88;;
74375;SDS011;62812;55.188;61.302;2022-11-23T15:08:13;9.15;;;4.32;;
74375;SDS011;62812;55.188;61.302;2022-11-23T15:10:46;6.72;;;3.35;;
74375;SDS011;62812;55.188;61.302;2022-11-23T15:13:18;10.32;;;4.68;;
74375;SDS011;62812;55.188;61.302;2022-11-23T15:15:48;7.75;;;4.07;;
74375;SDS011;62812;55.188;61.302;2022-11-23T15:18:25;7.30;;;3.40;;
74375;SDS011;62812;55.188;61.302;2022-11-23T15:21:02;8.82;;;3.85;;
74375;SDS011;62812;55.188;61.302;2022-11-23T15:23:32;9.07;;;3.95;;